CML weather

Camooweal Airport
Queensland, Australia

Public forecast

Using degrees Celsius for public forecast. Weather courtesy of forecast.io.

METAR (pilot weather report)

Closest report is Mount Isa Airport, 89.1 nm (165.0 km) ESE. Retrieved 2019/04/23 15:30 UTC (0 seconds ago):

YBMA 231530Z AUTO 16013KT 9999 // NCD 23/14 Q1017 RF00.0/000.0

TAF (pilot weather forecast)

Closest forecast is Mount Isa Airport, 89.1 nm (165.0 km) ESE. Retrieved 2019/04/23 12:03 UTC (3 hours ago):

TAF TAF YBMA 231043Z 2312/2324 16010KT CAVOK